sensor_id;sensor_type;location;lat;lon;timestamp;P1;durP1;ratioP1;P2;durP2;ratioP2
14734;SDS011;7458;49.002;8.472;2024-01-15T00:00:59;33.22;;;16.55;;
14734;SDS011;7458;49.002;8.472;2024-01-15T00:03:25;29.17;;;18.27;;
14734;SDS011;7458;49.002;8.472;2024-01-15T00:05:51;41.50;;;20.90;;
14734;SDS011;7458;49.002;8.472;2024-01-15T00:08:18;34.92;;;22.45;;
14734;SDS011;7458;49.002;8.472;2024-01-15T00:10:44;32.25;;;21.70;;
14734;SDS011;7458;49.002;8.472;2024-01-15T00:13:10;32.00;;;19.30;;
14734;SDS011;7458;49.002;8.472;2024-01-15T00:15:36;43.80;;;21.02;;
14734;SDS011;7458;49.002;8.472;2024-01-15T00:18:03;38.45;;;24.45;;
14734;SDS011;7458;49.002;8.472;2024-01-15T00:20:29;38.92;;;20.95;;
14734;SDS011;7458;49.002;8.472;2024-01-15T00:22:55;38.92;;;20.98;;
14734;SDS011;7458;49.002;8.472;2024-01-15T00:25:22;35.35;;;22.60;;
14734;SDS011;7458;49.002;8.472;2024-01-15T00:27:48;45.15;;;26.20;;
14734;SDS011;7458;49.002;8.472;2024-01-15T00:30:15;35.97;;;20.55;;
14734;SDS011;7458;49.002;8.472;2024-01-15T00:32:41;42.92;;;26.80;;
14734;SDS011;7458;49.002;8.472;2024-01-15T00:35:07;38.28;;;23.58;;
14734;SDS011;7458;49.002;8.472;2024-01-15T00:37:33;42.22;;;27.65;;
14734;SDS011;7458;49.002;8.472;2024-01-15T00:39:59;40.50;;;21.30;;
14734;SDS011;7458;49.002;8.472;2024-01-15T00:42:26;39.03;;;21.13;;
14734;SDS011;7458;49.002;8.472;2024-01-15T00:44:52;47.40;;;26.00;;
14734;SDS011;7458;49.002;8.472;2024-01-15T00:47:20;43.10;;;23.55;;
14734;SDS011;7458;49.002;8.472;2024-01-15T00:49:46;39.08;;;25.00;;
14734;SDS011;7458;49.002;8.472;2024-01-15T00:52:12;39.42;;;21.63;;
14734;SDS011;7458;49.002;8.472;2024-01-15T00:54:37;51.60;;;26.85;;
14734;SDS011;7458;49.002;8.472;2024-01-15T00:57:05;38.50;;;22.38;;
14734;SDS011;7458;49.002;8.472;2024-01-15T00:59:31;42.45;;;21.88;;
14734;SDS011;7458;49.002;8.472;2024-01-15T01:01:57;49.50;;;26.75;;
14734;SDS011;7458;49.002;8.472;2024-01-15T01:04:23;44.70;;;24.70;;
14734;SDS011;7458;49.002;8.472;2024-01-15T01:06:49;43.95;;;24.80;;
14734;SDS011;7458;49.002;8.472;2024-01-15T01:09:16;38.80;;;24.65;;
14734;SDS011;7458;49.002;8.472;2024-01-15T01:11:42;34.78;;;23.08;;
14734;SDS011;7458;49.002;8.472;2024-01-15T01:14:08;43.60;;;27.15;;
14734;SDS011;7458;49.002;8.472;2024-01-15T01:16:34;43.58;;;23.85;;
14734;SDS011;7458;49.002;8.472;2024-01-15T01:19:04;35.35;;;18.80;;
14734;SDS011;7458;49.002;8.472;2024-01-15T01:21:32;46.47;;;24.98;;
14734;SDS011;7458;49.002;8.472;2024-01-15T01:23:58;51.78;;;27.77;;
14734;SDS011;7458;49.002;8.472;2024-01-15T01:26:24;40.63;;;21.70;;
14734;SDS011;7458;49.002;8.472;2024-01-15T01:28:50;36.83;;;24.13;;
14734;SDS011;7458;49.002;8.472;2024-01-15T01:31:16;42.35;;;22.38;;
14734;SDS011;7458;49.002;8.472;2024-01-15T01:33:42;34.85;;;21.30;;
14734;SDS011;7458;49.002;8.472;2024-01-15T01:36:09;40.22;;;23.90;;
14734;SDS011;7458;49.002;8.472;2024-01-15T01:38:39;49.65;;;23.33;;
14734;SDS011;7458;49.002;8.472;2024-01-15T01:41:05;38.50;;;20.40;;
14734;SDS011;7458;49.002;8.472;2024-01-15T01:43:31;37.75;;;23.50;;
14734;SDS011;7458;49.002;8.472;2024-01-15T01:45:58;39.22;;;22.17;;
14734;SDS011;7458;49.002;8.472;2024-01-15T01:48:27;36.20;;;20.65;;
14734;SDS011;7458;49.002;8.472;2024-01-15T01:50:57;38.45;;;22.55;;
14734;SDS011;7458;49.002;8.472;2024-01-15T01:53:27;41.13;;;21.65;;
14734;SDS011;7458;49.002;8.472;2024-01-15T01:55:54;35.63;;;20.63;;
14734;SDS011;7458;49.002;8.472;2024-01-15T01:58:22;51.90;;;25.50;;
14734;SDS011;7458;49.002;8.472;2024-01-15T02:00:50;35.85;;;22.90;;
14734;SDS011;7458;49.002;8.472;2024-01-15T02:03:16;37.10;;;26.65;;
14734;SDS011;7458;49.002;8.472;2024-01-15T02:05:43;34.55;;;20.52;;
14734;SDS011;7458;49.002;8.472;2024-01-15T02:08:10;36.28;;;20.98;;
14734;SDS011;7458;49.002;8.472;2024-01-15T02:10:36;44.50;;;24.55;;
14734;SDS011;7458;49.002;8.472;2024-01-15T02:13:02;38.22;;;25.90;;
14734;SDS011;7458;49.002;8.472;2024-01-15T02:15:28;42.97;;;20.95;;
14734;SDS011;7458;49.002;8.472;2024-01-15T02:18:02;38.92;;;25.17;;
14734;SDS011;7458;49.002;8.472;2024-01-15T02:20:29;39.95;;;22.52;;
14734;SDS011;7458;49.002;8.472;2024-01-15T02:23:01;49.65;;;27.95;;
14734;SDS011;7458;49.002;8.472;2024-01-15T02:25:34;37.70;;;21.77;;
14734;SDS011;7458;49.002;8.472;2024-01-15T02:28:05;44.28;;;21.42;;
14734;SDS011;7458;49.002;8.472;2024-01-15T02:30:39;38.10;;;23.67;;
14734;SDS011;7458;49.002;8.472;2024-01-15T02:33:06;36.67;;;25.10;;
14734;SDS011;7458;49.002;8.472;2024-01-15T02:35:34;36.55;;;25.00;;
14734;SDS011;7458;49.002;8.472;2024-01-15T02:38:03;34.15;;;21.83;;
14734;SDS011;7458;49.002;8.472;2024-01-15T02:40:32;43.35;;;21.10;;
14734;SDS011;7458;49.002;8.472;2024-01-15T02:43:00;42.78;;;24.75;;
14734;SDS011;7458;49.002;8.472;2024-01-15T02:45:26;39.60;;;22.00;;
14734;SDS011;7458;49.002;8.472;2024-01-15T02:47:53;44.17;;;23.45;;
14734;SDS011;7458;49.002;8.472;2024-01-15T02:50:19;36.72;;;24.45;;
14734;SDS011;7458;49.002;8.472;2024-01-15T02:52:45;36.42;;;20.30;;
14734;SDS011;7458;49.002;8.472;2024-01-15T02:55:11;46.45;;;25.30;;
14734;SDS011;7458;49.002;8.472;2024-01-15T02:57:37;41.03;;;24.90;;
14734;SDS011;7458;49.002;8.472;2024-01-15T03:00:03;41.88;;;22.85;;
14734;SDS011;7458;49.002;8.472;2024-01-15T03:02:30;39.72;;;22.65;;
14734;SDS011;7458;49.002;8.472;2024-01-15T03:04:56;37.47;;;20.38;;
14734;SDS011;7458;49.002;8.472;2024-01-15T03:07:22;34.75;;;21.25;;
14734;SDS011;7458;49.002;8.472;2024-01-15T03:09:49;43.28;;;22.65;;
14734;SDS011;7458;49.002;8.472;2024-01-15T03:12:14;31.88;;;22.60;;
14734;SDS011;7458;49.002;8.472;2024-01-15T03:14:41;37.17;;;24.48;;
14734;SDS011;7458;49.002;8.472;2024-01-15T03:17:07;35.70;;;22.13;;
14734;SDS011;7458;49.002;8.472;2024-01-15T03:19:35;35.90;;;22.00;;
14734;SDS011;7458;49.002;8.472;2024-01-15T03:22:01;35.85;;;20.55;;
14734;SDS011;7458;49.002;8.472;2024-01-15T03:24:28;41.85;;;23.58;;
14734;SDS011;7458;49.002;8.472;2024-01-15T03:26:56;44.03;;;25.30;;
14734;SDS011;7458;49.002;8.472;2024-01-15T03:29:22;39.83;;;23.80;;
14734;SDS011;7458;49.002;8.472;2024-01-15T03:31:48;37.75;;;23.58;;
14734;SDS011;7458;49.002;8.472;2024-01-15T03:34:14;45.92;;;22.67;;
14734;SDS011;7458;49.002;8.472;2024-01-15T03:36:40;35.05;;;20.80;;
14734;SDS011;7458;49.002;8.472;2024-01-15T03:39:06;39.88;;;24.27;;
14734;SDS011;7458;49.002;8.472;2024-01-15T03:41:32;37.72;;;23.23;;
14734;SDS011;7458;49.002;8.472;2024-01-15T03:43:58;35.72;;;21.42;;
14734;SDS011;7458;49.002;8.472;2024-01-15T03:46:25;36.97;;;22.98;;
14734;SDS011;7458;49.002;8.472;2024-01-15T03:48:51;49.10;;;27.85;;
14734;SDS011;7458;49.002;8.472;2024-01-15T03:51:17;37.25;;;23.33;;
14734;SDS011;7458;49.002;8.472;2024-01-15T03:53:43;44.47;;;24.80;;
14734;SDS011;7458;49.002;8.472;2024-01-15T03:56:10;29.17;;;22.90;;
14734;SDS011;7458;49.002;8.472;2024-01-15T03:58:36;37.53;;;23.95;;
14734;SDS011;7458;49.002;8.472;2024-01-15T04:01:02;34.80;;;20.67;;
14734;SDS011;7458;49.002;8.472;2024-01-15T04:03:28;34.08;;;21.48;;
14734;SDS011;7458;49.002;8.472;2024-01-15T04:05:54;28.75;;;20.63;;
14734;SDS011;7458;49.002;8.472;2024-01-15T04:08:22;43.10;;;21.17;;
14734;SDS011;7458;49.002;8.472;2024-01-15T04:10:48;38.13;;;21.75;;
14734;SDS011;7458;49.002;8.472;2024-01-15T04:13:14;42.03;;;26.75;;
14734;SDS011;7458;49.002;8.472;2024-01-15T04:15:40;35.00;;;19.65;;
14734;SDS011;7458;49.002;8.472;2024-01-15T04:18:06;33.65;;;21.90;;
14734;SDS011;7458;49.002;8.472;2024-01-15T04:20:32;38.88;;;21.20;;
14734;SDS011;7458;49.002;8.472;2024-01-15T04:22:58;43.92;;;21.55;;
14734;SDS011;7458;49.002;8.472;2024-01-15T04:25:25;40.17;;;22.42;;
14734;SDS011;7458;49.002;8.472;2024-01-15T04:27:51;39.80;;;22.63;;
14734;SDS011;7458;49.002;8.472;2024-01-15T04:30:17;37.15;;;23.10;;
14734;SDS011;7458;49.002;8.472;2024-01-15T04:32:43;31.63;;;23.15;;
14734;SDS011;7458;49.002;8.472;2024-01-15T04:35:09;38.95;;;24.80;;
14734;SDS011;7458;49.002;8.472;2024-01-15T04:37:35;41.60;;;22.45;;
14734;SDS011;7458;49.002;8.472;2024-01-15T04:40:02;24.25;;;16.02;;
14734;SDS011;7458;49.002;8.472;2024-01-15T04:42:29;44.53;;;20.00;;
14734;SDS011;7458;49.002;8.472;2024-01-15T04:44:55;38.78;;;19.73;;
14734;SDS011;7458;49.002;8.472;2024-01-15T04:47:21;41.70;;;19.73;;
14734;SDS011;7458;49.002;8.472;2024-01-15T04:49:47;35.30;;;21.35;;
14734;SDS011;7458;49.002;8.472;2024-01-15T04:52:14;38.55;;;20.35;;
14734;SDS011;7458;49.002;8.472;2024-01-15T04:54:40;34.47;;;21.70;;
14734;SDS011;7458;49.002;8.472;2024-01-15T04:57:06;35.90;;;21.92;;
14734;SDS011;7458;49.002;8.472;2024-01-15T04:59:32;41.80;;;20.42;;
14734;SDS011;7458;49.002;8.472;2024-01-15T05:01:58;29.48;;;20.88;;
14734;SDS011;7458;49.002;8.472;2024-01-15T05:04:24;40.83;;;24.92;;
14734;SDS011;7458;49.002;8.472;2024-01-15T05:06:51;39.05;;;23.73;;
14734;SDS011;7458;49.002;8.472;2024-01-15T05:09:18;36.92;;;19.83;;
14734;SDS011;7458;49.002;8.472;2024-01-15T05:11:44;33.97;;;22.02;;
14734;SDS011;7458;49.002;8.472;2024-01-15T05:14:10;33.17;;;21.30;;
14734;SDS011;7458;49.002;8.472;2024-01-15T05:16:40;38.83;;;18.02;;
14734;SDS011;7458;49.002;8.472;2024-01-15T05:19:13;35.78;;;18.88;;
14734;SDS011;7458;49.002;8.472;2024-01-15T05:21:39;30.63;;;20.27;;
14734;SDS011;7458;49.002;8.472;2024-01-15T05:24:05;31.70;;;22.40;;
14734;SDS011;7458;49.002;8.472;2024-01-15T05:26:32;34.88;;;24.77;;
14734;SDS011;7458;49.002;8.472;2024-01-15T05:28:59;36.13;;;18.98;;
14734;SDS011;7458;49.002;8.472;2024-01-15T05:31:25;42.25;;;22.30;;
14734;SDS011;7458;49.002;8.472;2024-01-15T05:33:51;34.63;;;21.02;;
14734;SDS011;7458;49.002;8.472;2024-01-15T05:36:18;31.92;;;19.50;;
14734;SDS011;7458;49.002;8.472;2024-01-15T05:38:44;35.95;;;21.55;;
14734;SDS011;7458;49.002;8.472;2024-01-15T05:41:10;29.35;;;19.63;;
14734;SDS011;7458;49.002;8.472;2024-01-15T05:43:36;42.20;;;24.25;;
14734;SDS011;7458;49.002;8.472;2024-01-15T05:46:03;40.28;;;22.00;;
14734;SDS011;7458;49.002;8.472;2024-01-15T05:48:30;39.83;;;22.73;;
14734;SDS011;7458;49.002;8.472;2024-01-15T05:51:01;34.63;;;21.77;;
14734;SDS011;7458;49.002;8.472;2024-01-15T05:53:27;28.10;;;20.13;;
14734;SDS011;7458;49.002;8.472;2024-01-15T05:55:53;44.10;;;25.35;;
14734;SDS011;7458;49.002;8.472;2024-01-15T05:58:20;39.15;;;22.98;;
14734;SDS011;7458;49.002;8.472;2024-01-15T06:00:47;34.33;;;21.42;;
14734;SDS011;7458;49.002;8.472;2024-01-15T06:03:14;42.60;;;25.95;;
14734;SDS011;7458;49.002;8.472;2024-01-15T06:05:41;38.30;;;21.75;;
14734;SDS011;7458;49.002;8.472;2024-01-15T06:08:07;35.92;;;18.67;;
14734;SDS011;7458;49.002;8.472;2024-01-15T06:10:33;28.33;;;20.23;;
14734;SDS011;7458;49.002;8.472;2024-01-15T06:12:59;32.75;;;24.20;;
14734;SDS011;7458;49.002;8.472;2024-01-15T06:15:25;44.33;;;22.88;;
14734;SDS011;7458;49.002;8.472;2024-01-15T06:17:51;30.05;;;20.23;;
14734;SDS011;7458;49.002;8.472;2024-01-15T06:20:17;31.35;;;19.95;;
14734;SDS011;7458;49.002;8.472;2024-01-15T06:22:43;41.47;;;19.85;;
14734;SDS011;7458;49.002;8.472;2024-01-15T06:25:10;35.05;;;22.50;;
14734;SDS011;7458;49.002;8.472;2024-01-15T06:27:36;33.85;;;21.73;;
14734;SDS011;7458;49.002;8.472;2024-01-15T06:30:02;32.80;;;19.27;;
14734;SDS011;7458;49.002;8.472;2024-01-15T06:32:29;39.08;;;21.63;;
14734;SDS011;7458;49.002;8.472;2024-01-15T06:34:55;35.22;;;19.63;;
14734;SDS011;7458;49.002;8.472;2024-01-15T06:37:21;40.17;;;20.95;;
14734;SDS011;7458;49.002;8.472;2024-01-15T06:39:48;45.97;;;22.85;;
14734;SDS011;7458;49.002;8.472;2024-01-15T06:42:13;40.38;;;21.25;;
14734;SDS011;7458;49.002;8.472;2024-01-15T06:44:39;36.55;;;25.23;;
14734;SDS011;7458;49.002;8.472;2024-01-15T06:47:06;32.25;;;19.10;;
14734;SDS011;7458;49.002;8.472;2024-01-15T06:49:32;30.70;;;20.73;;
14734;SDS011;7458;49.002;8.472;2024-01-15T06:51:58;35.33;;;21.48;;
14734;SDS011;7458;49.002;8.472;2024-01-15T06:54:24;44.83;;;20.90;;
14734;SDS011;7458;49.002;8.472;2024-01-15T06:56:51;34.28;;;21.77;;
14734;SDS011;7458;49.002;8.472;2024-01-15T06:59:17;39.80;;;22.58;;
14734;SDS011;7458;49.002;8.472;2024-01-15T07:01:43;38.00;;;23.33;;
14734;SDS011;7458;49.002;8.472;2024-01-15T07:04:09;34.15;;;22.38;;
14734;SDS011;7458;49.002;8.472;2024-01-15T07:06:36;31.73;;;20.75;;
14734;SDS011;7458;49.002;8.472;2024-01-15T07:09:02;40.60;;;24.17;;
14734;SDS011;7458;49.002;8.472;2024-01-15T07:11:28;31.92;;;22.17;;
14734;SDS011;7458;49.002;8.472;2024-01-15T07:13:54;33.83;;;19.10;;
14734;SDS011;7458;49.002;8.472;2024-01-15T07:16:20;36.20;;;23.50;;
14734;SDS011;7458;49.002;8.472;2024-01-15T07:18:47;35.25;;;21.27;;
14734;SDS011;7458;49.002;8.472;2024-01-15T07:21:13;41.28;;;21.58;;
14734;SDS011;7458;49.002;8.472;2024-01-15T07:23:39;36.97;;;23.92;;
14734;SDS011;7458;49.002;8.472;2024-01-15T07:26:05;44.67;;;24.90;;
14734;SDS011;7458;49.002;8.472;2024-01-15T07:28:31;35.95;;;22.40;;
14734;SDS011;7458;49.002;8.472;2024-01-15T07:30:58;40.28;;;21.40;;
14734;SDS011;7458;49.002;8.472;2024-01-15T07:33:26;37.33;;;23.77;;
14734;SDS011;7458;49.002;8.472;2024-01-15T07:35:52;39.60;;;22.50;;
14734;SDS011;7458;49.002;8.472;2024-01-15T07:38:18;31.55;;;19.50;;
14734;SDS011;7458;49.002;8.472;2024-01-15T07:40:45;43.88;;;23.80;;
14734;SDS011;7458;49.002;8.472;2024-01-15T07:43:14;46.80;;;26.00;;
14734;SDS011;7458;49.002;8.472;2024-01-15T07:45:40;40.78;;;23.63;;
14734;SDS011;7458;49.002;8.472;2024-01-15T07:48:06;40.50;;;22.65;;
14734;SDS011;7458;49.002;8.472;2024-01-15T07:50:33;35.30;;;19.25;;
14734;SDS011;7458;49.002;8.472;2024-01-15T07:52:59;34.15;;;22.02;;
14734;SDS011;7458;49.002;8.472;2024-01-15T07:55:25;42.78;;;24.38;;
14734;SDS011;7458;49.002;8.472;2024-01-15T07:57:51;43.70;;;24.38;;
14734;SDS011;7458;49.002;8.472;2024-01-15T08:00:18;34.17;;;21.58;;
14734;SDS011;7458;49.002;8.472;2024-01-15T08:02:44;35.03;;;21.30;;
14734;SDS011;7458;49.002;8.472;2024-01-15T08:05:10;34.88;;;22.67;;
14734;SDS011;7458;49.002;8.472;2024-01-15T08:07:37;44.92;;;23.02;;
14734;SDS011;7458;49.002;8.472;2024-01-15T08:10:03;36.25;;;22.08;;
14734;SDS011;7458;49.002;8.472;2024-01-15T08:12:29;40.15;;;25.20;;
14734;SDS011;7458;49.002;8.472;2024-01-15T08:14:55;40.47;;;26.88;;
14734;SDS011;7458;49.002;8.472;2024-01-15T08:17:21;44.78;;;23.92;;
14734;SDS011;7458;49.002;8.472;2024-01-15T08:19:48;36.28;;;19.90;;
14734;SDS011;7458;49.002;8.472;2024-01-15T08:22:15;33.47;;;21.02;;
14734;SDS011;7458;49.002;8.472;2024-01-15T08:24:44;39.35;;;25.05;;
14734;SDS011;7458;49.002;8.472;2024-01-15T08:27:11;40.65;;;21.92;;
14734;SDS011;7458;49.002;8.472;2024-01-15T08:29:37;44.15;;;23.35;;
14734;SDS011;7458;49.002;8.472;2024-01-15T08:32:03;45.20;;;23.20;;
14734;SDS011;7458;49.002;8.472;2024-01-15T08:34:31;36.47;;;20.35;;
14734;SDS011;7458;49.002;8.472;2024-01-15T08:37:01;41.92;;;23.88;;
14734;SDS011;7458;49.002;8.472;2024-01-15T08:39:30;38.50;;;23.48;;
14734;SDS011;7458;49.002;8.472;2024-01-15T08:41:58;41.22;;;21.73;;
14734;SDS011;7458;49.002;8.472;2024-01-15T08:44:24;29.55;;;20.50;;
14734;SDS011;7458;49.002;8.472;2024-01-15T08:46:50;32.53;;;21.00;;
14734;SDS011;7458;49.002;8.472;2024-01-15T08:49:16;30.60;;;19.10;;
14734;SDS011;7458;49.002;8.472;2024-01-15T08:51:42;36.70;;;21.23;;
14734;SDS011;7458;49.002;8.472;2024-01-15T08:54:08;39.33;;;24.05;;
14734;SDS011;7458;49.002;8.472;2024-01-15T08:56:35;29.02;;;18.88;;
14734;SDS011;7458;49.002;8.472;2024-01-15T08:59:02;30.67;;;20.40;;
14734;SDS011;7458;49.002;8.472;2024-01-15T09:01:32;40.30;;;23.38;;
14734;SDS011;7458;49.002;8.472;2024-01-15T09:04:01;31.02;;;20.05;;
14734;SDS011;7458;49.002;8.472;2024-01-15T09:06:36;26.15;;;18.13;;
14734;SDS011;7458;49.002;8.472;2024-01-15T09:09:16;28.20;;;22.98;;
14734;SDS011;7458;49.002;8.472;2024-01-15T09:11:49;30.95;;;19.10;;
14734;SDS011;7458;49.002;8.472;2024-01-15T09:14:24;29.98;;;19.08;;
14734;SDS011;7458;49.002;8.472;2024-01-15T09:16:52;33.63;;;18.85;;
14734;SDS011;7458;49.002;8.472;2024-01-15T09:19:18;28.33;;;20.92;;
14734;SDS011;7458;49.002;8.472;2024-01-15T09:21:45;36.67;;;19.25;;
14734;SDS011;7458;49.002;8.472;2024-01-15T09:24:11;30.80;;;18.88;;
14734;SDS011;7458;49.002;8.472;2024-01-15T09:26:37;33.15;;;20.58;;
14734;SDS011;7458;49.002;8.472;2024-01-15T09:29:03;27.90;;;17.25;;
14734;SDS011;7458;49.002;8.472;2024-01-15T09:31:29;30.65;;;19.58;;
14734;SDS011;7458;49.002;8.472;2024-01-15T09:33:56;32.55;;;18.55;;
14734;SDS011;7458;49.002;8.472;2024-01-15T09:36:25;36.35;;;18.38;;
14734;SDS011;7458;49.002;8.472;2024-01-15T09:38:52;30.05;;;17.38;;
14734;SDS011;7458;49.002;8.472;2024-01-15T09:41:18;19.80;;;14.77;;
14734;SDS011;7458;49.002;8.472;2024-01-15T09:43:44;29.17;;;21.50;;
14734;SDS011;7458;49.002;8.472;2024-01-15T09:46:11;33.25;;;21.73;;
14734;SDS011;7458;49.002;8.472;2024-01-15T09:48:38;26.35;;;16.05;;
14734;SDS011;7458;49.002;8.472;2024-01-15T09:51:05;31.27;;;19.30;;
14734;SDS011;7458;49.002;8.472;2024-01-15T09:53:33;34.75;;;19.63;;
14734;SDS011;7458;49.002;8.472;2024-01-15T09:56:02;22.00;;;17.00;;
14734;SDS011;7458;49.002;8.472;2024-01-15T09:58:30;36.53;;;16.98;;
14734;SDS011;7458;49.002;8.472;2024-01-15T10:00:57;39.78;;;18.50;;
14734;SDS011;7458;49.002;8.472;2024-01-15T10:03:23;28.45;;;14.57;;
14734;SDS011;7458;49.002;8.472;2024-01-15T10:05:50;32.53;;;18.88;;
14734;SDS011;7458;49.002;8.472;2024-01-15T10:08:16;34.97;;;21.83;;
14734;SDS011;7458;49.002;8.472;2024-01-15T10:10:43;33.10;;;20.52;;
14734;SDS011;7458;49.002;8.472;2024-01-15T10:13:09;37.53;;;22.10;;
14734;SDS011;7458;49.002;8.472;2024-01-15T10:15:37;37.88;;;18.50;;
14734;SDS011;7458;49.002;8.472;2024-01-15T10:18:04;37.10;;;20.92;;
14734;SDS011;7458;49.002;8.472;2024-01-15T10:20:32;27.85;;;16.42;;
14734;SDS011;7458;49.002;8.472;2024-01-15T10:22:58;31.55;;;19.38;;
14734;SDS011;7458;49.002;8.472;2024-01-15T10:25:24;28.15;;;16.40;;
14734;SDS011;7458;49.002;8.472;2024-01-15T10:28:00;48.78;;;22.38;;
14734;SDS011;7458;49.002;8.472;2024-01-15T10:30:28;33.40;;;18.67;;
14734;SDS011;7458;49.002;8.472;2024-01-15T10:33:00;27.80;;;19.88;;
14734;SDS011;7458;49.002;8.472;2024-01-15T10:35:31;32.35;;;21.80;;
14734;SDS011;7458;49.002;8.472;2024-01-15T10:38:00;28.42;;;16.23;;
14734;SDS011;7458;49.002;8.472;2024-01-15T10:40:28;30.08;;;19.27;;
14734;SDS011;7458;49.002;8.472;2024-01-15T10:42:54;18.80;;;11.73;;
14734;SDS011;7458;49.002;8.472;2024-01-15T10:45:21;30.10;;;18.30;;
14734;SDS011;7458;49.002;8.472;2024-01-15T10:47:47;25.88;;;18.98;;
14734;SDS011;7458;49.002;8.472;2024-01-15T10:50:14;29.65;;;16.63;;
14734;SDS011;7458;49.002;8.472;2024-01-15T10:52:41;31.90;;;18.23;;
14734;SDS011;7458;49.002;8.472;2024-01-15T10:55:11;26.23;;;15.55;;
14734;SDS011;7458;49.002;8.472;2024-01-15T10:57:37;39.42;;;18.38;;
14734;SDS011;7458;49.002;8.472;2024-01-15T11:00:06;30.75;;;18.40;;
14734;SDS011;7458;49.002;8.472;2024-01-15T11:02:40;29.50;;;18.25;;
14734;SDS011;7458;49.002;8.472;2024-01-15T11:05:07;27.50;;;18.58;;
14734;SDS011;7458;49.002;8.472;2024-01-15T11:07:33;19.30;;;13.85;;
14734;SDS011;7458;49.002;8.472;2024-01-15T11:10:02;34.28;;;20.00;;
14734;SDS011;7458;49.002;8.472;2024-01-15T11:12:29;31.98;;;19.13;;
14734;SDS011;7458;49.002;8.472;2024-01-15T11:15:03;25.08;;;16.90;;
14734;SDS011;7458;49.002;8.472;2024-01-15T11:17:57;35.55;;;20.20;;
14734;SDS011;7458;49.002;8.472;2024-01-15T11:20:26;33.10;;;17.45;;
14734;SDS011;7458;49.002;8.472;2024-01-15T11:22:52;24.27;;;17.90;;
14734;SDS011;7458;49.002;8.472;2024-01-15T11:25:18;29.10;;;16.17;;
14734;SDS011;7458;49.002;8.472;2024-01-15T11:30:12;29.65;;;19.58;;
14734;SDS011;7458;49.002;8.472;2024-01-15T11:32:39;28.02;;;16.38;;
14734;SDS011;7458;49.002;8.472;2024-01-15T11:35:09;33.42;;;18.48;;
14734;SDS011;7458;49.002;8.472;2024-01-15T11:40:19;22.58;;;15.45;;
14734;SDS011;7458;49.002;8.472;2024-01-15T11:42:46;20.95;;;13.05;;
14734;SDS011;7458;49.002;8.472;2024-01-15T11:45:18;25.00;;;14.07;;
14734;SDS011;7458;49.002;8.472;2024-01-15T11:50:22;23.88;;;12.77;;
14734;SDS011;7458;49.002;8.472;2024-01-15T11:53:03;22.27;;;13.55;;
14734;SDS011;7458;49.002;8.472;2024-01-15T11:55:42;33.80;;;19.17;;
14734;SDS011;7458;49.002;8.472;2024-01-15T11:58:21;27.77;;;19.42;;
14734;SDS011;7458;49.002;8.472;2024-01-15T12:00:53;28.20;;;17.23;;
14734;SDS011;7458;49.002;8.472;2024-01-15T12:03:23;20.30;;;14.35;;
14734;SDS011;7458;49.002;8.472;2024-01-15T12:05:50;24.58;;;18.52;;
14734;SDS011;7458;49.002;8.472;2024-01-15T12:08:24;24.55;;;15.27;;
14734;SDS011;7458;49.002;8.472;2024-01-15T12:10:50;23.17;;;15.55;;
14734;SDS011;7458;49.002;8.472;2024-01-15T12:13:17;22.35;;;13.80;;
14734;SDS011;7458;49.002;8.472;2024-01-15T12:15:44;23.20;;;13.82;;
14734;SDS011;7458;49.002;8.472;2024-01-15T12:18:12;21.27;;;15.18;;
14734;SDS011;7458;49.002;8.472;2024-01-15T12:20:40;24.55;;;14.45;;
14734;SDS011;7458;49.002;8.472;2024-01-15T12:23:07;21.80;;;13.38;;
14734;SDS011;7458;49.002;8.472;2024-01-15T12:25:35;21.85;;;14.65;;
14734;SDS011;7458;49.002;8.472;2024-01-15T12:28:02;31.83;;;15.90;;
14734;SDS011;7458;49.002;8.472;2024-01-15T12:30:29;29.63;;;16.58;;
14734;SDS011;7458;49.002;8.472;2024-01-15T12:33:00;24.77;;;15.07;;
14734;SDS011;7458;49.002;8.472;2024-01-15T12:35:28;22.70;;;14.20;;
14734;SDS011;7458;49.002;8.472;2024-01-15T12:37:55;19.73;;;13.88;;
14734;SDS011;7458;49.002;8.472;2024-01-15T12:40:22;18.10;;;13.57;;
14734;SDS011;7458;49.002;8.472;2024-01-15T12:42:48;14.75;;;11.02;;
14734;SDS011;7458;49.002;8.472;2024-01-15T12:45:15;16.73;;;11.27;;
14734;SDS011;7458;49.002;8.472;2024-01-15T12:47:41;17.05;;;10.73;;
14734;SDS011;7458;49.002;8.472;2024-01-15T12:50:11;23.52;;;14.93;;
14734;SDS011;7458;49.002;8.472;2024-01-15T12:52:41;23.00;;;14.15;;
14734;SDS011;7458;49.002;8.472;2024-01-15T12:55:08;19.67;;;14.32;;
14734;SDS011;7458;49.002;8.472;2024-01-15T12:57:35;16.15;;;11.38;;
14734;SDS011;7458;49.002;8.472;2024-01-15T13:00:04;21.65;;;13.48;;
14734;SDS011;7458;49.002;8.472;2024-01-15T13:02:33;20.77;;;12.77;;
14734;SDS011;7458;49.002;8.472;2024-01-15T13:05:00;18.65;;;13.93;;
14734;SDS011;7458;49.002;8.472;2024-01-15T13:07:26;22.90;;;14.50;;
14734;SDS011;7458;49.002;8.472;2024-01-15T13:09:52;14.50;;;10.98;;
14734;SDS011;7458;49.002;8.472;2024-01-15T13:12:19;21.33;;;13.77;;
14734;SDS011;7458;49.002;8.472;2024-01-15T13:14:46;26.27;;;14.73;;
14734;SDS011;7458;49.002;8.472;2024-01-15T13:17:12;19.13;;;12.57;;
14734;SDS011;7458;49.002;8.472;2024-01-15T13:19:42;21.60;;;11.55;;
14734;SDS011;7458;49.002;8.472;2024-01-15T13:22:09;20.70;;;14.60;;
14734;SDS011;7458;49.002;8.472;2024-01-15T13:24:38;14.52;;;11.45;;
14734;SDS011;7458;49.002;8.472;2024-01-15T13:27:04;20.33;;;11.75;;
14734;SDS011;7458;49.002;8.472;2024-01-15T13:29:31;17.40;;;12.02;;
14734;SDS011;7458;49.002;8.472;2024-01-15T13:31:58;18.35;;;11.52;;
14734;SDS011;7458;49.002;8.472;2024-01-15T13:34:25;28.73;;;12.15;;
14734;SDS011;7458;49.002;8.472;2024-01-15T13:36:51;16.20;;;9.88;;
14734;SDS011;7458;49.002;8.472;2024-01-15T13:39:18;19.52;;;11.63;;
14734;SDS011;7458;49.002;8.472;2024-01-15T13:41:48;15.27;;;11.55;;
14734;SDS011;7458;49.002;8.472;2024-01-15T13:44:14;11.77;;;9.20;;
14734;SDS011;7458;49.002;8.472;2024-01-15T13:46:41;15.45;;;11.45;;
14734;SDS011;7458;49.002;8.472;2024-01-15T13:49:07;19.05;;;11.25;;
14734;SDS011;7458;49.002;8.472;2024-01-15T13:51:34;14.50;;;10.10;;
14734;SDS011;7458;49.002;8.472;2024-01-15T13:54:01;16.08;;;11.32;;
14734;SDS011;7458;49.002;8.472;2024-01-15T13:56:29;15.52;;;10.23;;
14734;SDS011;7458;49.002;8.472;2024-01-15T13:58:57;14.07;;;11.07;;
14734;SDS011;7458;49.002;8.472;2024-01-15T14:01:24;16.35;;;13.20;;
14734;SDS011;7458;49.002;8.472;2024-01-15T14:03:51;18.52;;;10.27;;
14734;SDS011;7458;49.002;8.472;2024-01-15T14:06:18;14.35;;;11.80;;
14734;SDS011;7458;49.002;8.472;2024-01-15T14:08:45;14.25;;;10.13;;
14734;SDS011;7458;49.002;8.472;2024-01-15T14:11:11;16.70;;;12.93;;
14734;SDS011;7458;49.002;8.472;2024-01-15T14:13:37;15.15;;;11.20;;
14734;SDS011;7458;49.002;8.472;2024-01-15T14:16:03;13.85;;;9.50;;
14734;SDS011;7458;49.002;8.472;2024-01-15T14:18:30;11.65;;;7.88;;
14734;SDS011;7458;49.002;8.472;2024-01-15T14:20:57;16.95;;;8.93;;
14734;SDS011;7458;49.002;8.472;2024-01-15T14:23:23;14.90;;;10.18;;
14734;SDS011;7458;49.002;8.472;2024-01-15T14:25:49;17.40;;;10.60;;
14734;SDS011;7458;49.002;8.472;2024-01-15T14:28:15;16.40;;;10.02;;
14734;SDS011;7458;49.002;8.472;2024-01-15T14:30:41;18.55;;;12.00;;
14734;SDS011;7458;49.002;8.472;2024-01-15T14:33:07;13.55;;;9.70;;
14734;SDS011;7458;49.002;8.472;2024-01-15T14:35:34;15.32;;;8.82;;
14734;SDS011;7458;49.002;8.472;2024-01-15T14:38:00;14.90;;;10.43;;
14734;SDS011;7458;49.002;8.472;2024-01-15T14:40:26;18.88;;;9.90;;
14734;SDS011;7458;49.002;8.472;2024-01-15T14:42:52;16.50;;;11.23;;